sensor_id;sensor_type;location;lat;lon;timestamp;pressure;altitude;pressure_sealevel;temperature;humidity
6028;BME280;3042;43.194;27.646;2023-01-15T00:01:50;102425.06;;;12.34;100.00
6028;BME280;3042;43.194;27.646;2023-01-15T00:04:19;102431.44;;;12.26;100.00
6028;BME280;3042;43.194;27.646;2023-01-15T00:06:46;102446.69;;;12.08;100.00
6028;BME280;3042;43.194;27.646;2023-01-15T00:09:14;102441.59;;;12.10;100.00
6028;BME280;3042;43.194;27.646;2023-01-15T00:11:41;102440.19;;;11.88;100.00
6028;BME280;3042;43.194;27.646;2023-01-15T00:14:08;102449.66;;;11.62;100.00
6028;BME280;3042;43.194;27.646;2023-01-15T00:16:36;102447.06;;;11.37;100.00
6028;BME280;3042;43.194;27.646;2023-01-15T00:19:05;102444.97;;;11.57;100.00
6028;BME280;3042;43.194;27.646;2023-01-15T00:21:36;102391.59;;;11.59;100.00
6028;BME280;3042;43.194;27.646;2023-01-15T00:24:04;102430.38;;;11.84;100.00
6028;BME280;3042;43.194;27.646;2023-01-15T00:26:48;102451.03;;;11.57;100.00
6028;BME280;3042;43.194;27.646;2023-01-15T00:29:33;102451.09;;;11.46;100.00
6028;BME280;3042;43.194;27.646;2023-01-15T00:32:02;102438.34;;;11.74;100.00
6028;BME280;3042;43.194;27.646;2023-01-15T00:34:29;102442.31;;;11.69;100.00
6028;BME280;3042;43.194;27.646;2023-01-15T00:36:58;102427.41;;;11.91;100.00
6028;BME280;3042;43.194;27.646;2023-01-15T00:39:25;102436.13;;;11.67;100.00
6028;BME280;3042;43.194;27.646;2023-01-15T00:41:53;102445.28;;;11.36;100.00
6028;BME280;3042;43.194;27.646;2023-01-15T00:44:20;102385.25;;;11.29;100.00
6028;BME280;3042;43.194;27.646;2023-01-15T00:46:48;102428.94;;;11.62;100.00
6028;BME280;3042;43.194;27.646;2023-01-15T00:49:15;102434.94;;;11.75;100.00
6028;BME280;3042;43.194;27.646;2023-01-15T00:51:42;102444.47;;;11.62;100.00
6028;BME280;3042;43.194;27.646;2023-01-15T00:54:10;102421.25;;;12.02;100.00
6028;BME280;3042;43.194;27.646;2023-01-15T00:56:37;102438.53;;;11.77;100.00
6028;BME280;3042;43.194;27.646;2023-01-15T00:59:04;102439.72;;;11.69;100.00
6028;BME280;3042;43.194;27.646;2023-01-15T01:01:32;102424.72;;;11.38;100.00
6028;BME280;3042;43.194;27.646;2023-01-15T01:03:59;102430.94;;;11.67;100.00
6028;BME280;3042;43.194;27.646;2023-01-15T01:06:26;102436.09;;;11.53;100.00
6028;BME280;3042;43.194;27.646;2023-01-15T01:08:54;102435.19;;;11.28;100.00
6028;BME280;3042;43.194;27.646;2023-01-15T01:11:24;102433.69;;;11.43;100.00
6028;BME280;3042;43.194;27.646;2023-01-15T01:13:53;102430.72;;;11.50;100.00
6028;BME280;3042;43.194;27.646;2023-01-15T01:16:23;102416.81;;;11.61;100.00
6028;BME280;3042;43.194;27.646;2023-01-15T01:18:50;102427.75;;;11.32;100.00
6028;BME280;3042;43.194;27.646;2023-01-15T01:21:17;102432.91;;;11.07;100.00
6028;BME280;3042;43.194;27.646;2023-01-15T01:23:45;102436.47;;;10.96;100.00
6028;BME280;3042;43.194;27.646;2023-01-15T01:26:12;102428.22;;;11.02;100.00
6028;BME280;3042;43.194;27.646;2023-01-15T01:28:41;102279.72;;;10.48;100.00
6028;BME280;3042;43.194;27.646;2023-01-15T01:31:08;102195.19;;;9.85;100.00
6028;BME280;3042;43.194;27.646;2023-01-15T01:33:36;102440.75;;;10.84;100.00
6028;BME280;3042;43.194;27.646;2023-01-15T01:36:03;102432.75;;;10.92;100.00
6028;BME280;3042;43.194;27.646;2023-01-15T01:38:30;102448.66;;;10.73;100.00
6028;BME280;3042;43.194;27.646;2023-01-15T01:40:57;102388.25;;;10.24;100.00
6028;BME280;3042;43.194;27.646;2023-01-15T01:43:26;102436.53;;;10.72;100.00
6028;BME280;3042;43.194;27.646;2023-01-15T01:45:55;102430.22;;;10.69;100.00
6028;BME280;3042;43.194;27.646;2023-01-15T01:48:25;102420.31;;;10.87;100.00
6028;BME280;3042;43.194;27.646;2023-01-15T01:50:56;102298.84;;;10.38;100.00
6028;BME280;3042;43.194;27.646;2023-01-15T01:53:28;102180.59;;;9.85;100.00
6028;BME280;3042;43.194;27.646;2023-01-15T01:55:57;102414.09;;;11.22;100.00
6028;BME280;3042;43.194;27.646;2023-01-15T01:58:28;102419.34;;;11.23;100.00
6028;BME280;3042;43.194;27.646;2023-01-15T02:00:58;102418.16;;;11.18;100.00
6028;BME280;3042;43.194;27.646;2023-01-15T02:03:31;102420.69;;;11.30;100.00
6028;BME280;3042;43.194;27.646;2023-01-15T02:06:00;102410.56;;;11.08;100.00
6028;BME280;3042;43.194;27.646;2023-01-15T02:08:28;102422.72;;;10.97;100.00
6028;BME280;3042;43.194;27.646;2023-01-15T02:10:57;102414.59;;;11.04;100.00
6028;BME280;3042;43.194;27.646;2023-01-15T02:13:31;102409.13;;;11.25;100.00
6028;BME280;3042;43.194;27.646;2023-01-15T02:16:06;102397.06;;;11.50;100.00
6028;BME280;3042;43.194;27.646;2023-01-15T02:18:39;102402.84;;;11.59;100.00
6028;BME280;3042;43.194;27.646;2023-01-15T02:21:13;102393.81;;;11.79;100.00
6028;BME280;3042;43.194;27.646;2023-01-15T02:24:04;102385.50;;;11.97;100.00
6028;BME280;3042;43.194;27.646;2023-01-15T02:26:58;102388.59;;;12.04;100.00
6028;BME280;3042;43.194;27.646;2023-01-15T02:29:33;102189.84;;;10.82;100.00
6028;BME280;3042;43.194;27.646;2023-01-15T02:32:07;102391.09;;;11.65;100.00
6028;BME280;3042;43.194;27.646;2023-01-15T02:34:42;102391.16;;;11.91;100.00
6028;BME280;3042;43.194;27.646;2023-01-15T02:37:13;102409.13;;;11.63;100.00
6028;BME280;3042;43.194;27.646;2023-01-15T02:39:43;102407.81;;;11.56;100.00
6028;BME280;3042;43.194;27.646;2023-01-15T02:42:13;102394.69;;;11.67;100.00
6028;BME280;3042;43.194;27.646;2023-01-15T02:44:46;102366.47;;;11.45;100.00
6028;BME280;3042;43.194;27.646;2023-01-15T02:47:16;102391.31;;;11.54;100.00
6028;BME280;3042;43.194;27.646;2023-01-15T02:49:45;102392.66;;;11.49;100.00
6028;BME280;3042;43.194;27.646;2023-01-15T02:52:17;102385.75;;;11.61;100.00
6028;BME280;3042;43.194;27.646;2023-01-15T02:54:48;102393.03;;;11.42;100.00
6028;BME280;3042;43.194;27.646;2023-01-15T02:57:17;102387.50;;;11.62;100.00
6028;BME280;3042;43.194;27.646;2023-01-15T02:59:48;102388.72;;;11.68;100.00
6028;BME280;3042;43.194;27.646;2023-01-15T03:02:19;102388.72;;;11.68;100.00
6028;BME280;3042;43.194;27.646;2023-01-15T03:04:50;102389.91;;;11.73;100.00
6028;BME280;3042;43.194;27.646;2023-01-15T03:07:22;102384.13;;;11.25;100.00
6028;BME280;3042;43.194;27.646;2023-01-15T03:09:51;102189.69;;;9.92;100.00
6028;BME280;3042;43.194;27.646;2023-01-15T03:12:25;102414.03;;;11.33;100.00
6028;BME280;3042;43.194;27.646;2023-01-15T03:15:02;102408.69;;;11.18;100.00
6028;BME280;3042;43.194;27.646;2023-01-15T03:17:36;102364.91;;;10.71;100.00
6028;BME280;3042;43.194;27.646;2023-01-15T03:20:08;102410.53;;;10.83;100.00
6028;BME280;3042;43.194;27.646;2023-01-15T03:22:39;102413.34;;;10.74;100.00
6028;BME280;3042;43.194;27.646;2023-01-15T03:25:13;102410.16;;;10.90;100.00
6028;BME280;3042;43.194;27.646;2023-01-15T03:27:43;102409.97;;;10.87;100.00
6028;BME280;3042;43.194;27.646;2023-01-15T03:30:14;102413.16;;;10.71;100.00
6028;BME280;3042;43.194;27.646;2023-01-15T03:32:41;102416.28;;;10.67;100.00
6028;BME280;3042;43.194;27.646;2023-01-15T03:35:41;102411.78;;;10.76;100.00
6028;BME280;3042;43.194;27.646;2023-01-15T03:38:09;102404.22;;;10.42;100.00
6028;BME280;3042;43.194;27.646;2023-01-15T03:40:42;102360.56;;;10.70;100.00
6028;BME280;3042;43.194;27.646;2023-01-15T03:43:14;102398.34;;;11.18;100.00
6028;BME280;3042;43.194;27.646;2023-01-15T03:46:05;102401.41;;;11.38;100.00
6028;BME280;3042;43.194;27.646;2023-01-15T03:48:40;102408.56;;;11.42;100.00
6028;BME280;3042;43.194;27.646;2023-01-15T03:51:12;102405.53;;;11.23;100.00
6028;BME280;3042;43.194;27.646;2023-01-15T03:53:46;102405.72;;;11.26;100.00
6028;BME280;3042;43.194;27.646;2023-01-15T03:56:17;102392.47;;;11.46;100.00
6028;BME280;3042;43.194;27.646;2023-01-15T03:58:52;102391.59;;;11.59;100.00
6028;BME280;3042;43.194;27.646;2023-01-15T04:01:25;102396.09;;;11.61;100.00
6028;BME280;3042;43.194;27.646;2023-01-15T04:03:55;102402.53;;;11.55;100.00
6028;BME280;3042;43.194;27.646;2023-01-15T04:06:25;102369.97;;;11.45;100.00
6028;BME280;3042;43.194;27.646;2023-01-15T04:08:53;102409.56;;;11.44;100.00
6028;BME280;3042;43.194;27.646;2023-01-15T04:11:22;102411.47;;;11.47;100.00
6028;BME280;3042;43.194;27.646;2023-01-15T04:13:51;102396.41;;;11.79;100.00
6028;BME280;3042;43.194;27.646;2023-01-15T04:16:23;102399.75;;;11.65;100.00
6028;BME280;3042;43.194;27.646;2023-01-15T04:18:51;102406.84;;;11.54;100.00
6028;BME280;3042;43.194;27.646;2023-01-15T04:21:19;102429.69;;;11.48;100.00
6028;BME280;3042;43.194;27.646;2023-01-15T04:23:46;102398.88;;;11.65;100.00
6028;BME280;3042;43.194;27.646;2023-01-15T04:26:13;102266.94;;;10.88;100.00
6028;BME280;3042;43.194;27.646;2023-01-15T04:28:41;102409.31;;;11.28;100.00
6028;BME280;3042;43.194;27.646;2023-01-15T04:31:10;102403.56;;;11.32;100.00
6028;BME280;3042;43.194;27.646;2023-01-15T04:33:37;102407.31;;;11.24;100.00
6028;BME280;3042;43.194;27.646;2023-01-15T04:36:05;102396.63;;;11.44;100.00
6028;BME280;3042;43.194;27.646;2023-01-15T04:38:33;102409.00;;;11.48;100.00
6028;BME280;3042;43.194;27.646;2023-01-15T04:41:00;102397.47;;;11.70;100.00
6028;BME280;3042;43.194;27.646;2023-01-15T04:43:45;102402.06;;;11.74;100.00
6028;BME280;3042;43.194;27.646;2023-01-15T04:46:31;102346.50;;;11.69;100.00
6028;BME280;3042;43.194;27.646;2023-01-15T04:48:59;102400.19;;;11.84;100.00
6028;BME280;3042;43.194;27.646;2023-01-15T04:51:26;102424.22;;;11.44;100.00
6028;BME280;3042;43.194;27.646;2023-01-15T04:53:53;102432.19;;;11.47;100.00
6028;BME280;3042;43.194;27.646;2023-01-15T04:56:20;102248.88;;;10.38;100.00
6028;BME280;3042;43.194;27.646;2023-01-15T04:58:47;102427.69;;;11.44;100.00
6028;BME280;3042;43.194;27.646;2023-01-15T05:01:16;102419.78;;;11.68;100.00
6028;BME280;3042;43.194;27.646;2023-01-15T05:03:45;102412.44;;;11.74;100.00
6028;BME280;3042;43.194;27.646;2023-01-15T05:06:12;102430.84;;;11.40;100.00
6028;BME280;3042;43.194;27.646;2023-01-15T05:08:39;102427.28;;;11.38;100.00
6028;BME280;3042;43.194;27.646;2023-01-15T05:11:07;102434.69;;;11.45;100.00
6028;BME280;3042;43.194;27.646;2023-01-15T05:13:34;102435.78;;;11.49;100.00
6028;BME280;3042;43.194;27.646;2023-01-15T05:16:09;102416.16;;;11.91;100.00
6028;BME280;3042;43.194;27.646;2023-01-15T05:18:36;102429.75;;;11.75;100.00
6028;BME280;3042;43.194;27.646;2023-01-15T05:21:05;102423.25;;;11.93;100.00
6028;BME280;3042;43.194;27.646;2023-01-15T05:23:32;102442.50;;;11.72;100.00
6028;BME280;3042;43.194;27.646;2023-01-15T05:26:02;102430.81;;;11.90;100.00
6028;BME280;3042;43.194;27.646;2023-01-15T05:28:30;102351.88;;;11.20;100.00
6028;BME280;3042;43.194;27.646;2023-01-15T05:30:57;102436.53;;;11.73;100.00
6028;BME280;3042;43.194;27.646;2023-01-15T05:33:24;102404.63;;;11.60;100.00
6028;BME280;3042;43.194;27.646;2023-01-15T05:35:51;102429.53;;;11.97;100.00
6028;BME280;3042;43.194;27.646;2023-01-15T05:38:19;102426.28;;;12.13;100.00
6028;BME280;3042;43.194;27.646;2023-01-15T05:40:46;102439.59;;;12.06;100.00
6028;BME280;3042;43.194;27.646;2023-01-15T05:43:13;102434.84;;;11.87;100.00
6028;BME280;3042;43.194;27.646;2023-01-15T05:45:40;102440.72;;;11.84;100.00
6028;BME280;3042;43.194;27.646;2023-01-15T05:48:07;102441.22;;;11.78;100.00
6028;BME280;3042;43.194;27.646;2023-01-15T05:50:34;102436.75;;;11.76;100.00
6028;BME280;3042;43.194;27.646;2023-01-15T05:53:01;102381.47;;;11.37;100.00
6028;BME280;3042;43.194;27.646;2023-01-15T05:55:30;102237.47;;;10.72;100.00
6028;BME280;3042;43.194;27.646;2023-01-15T05:57:57;102457.38;;;11.49;100.00
6028;BME280;3042;43.194;27.646;2023-01-15T06:00:24;102470.78;;;11.18;100.00
6028;BME280;3042;43.194;27.646;2023-01-15T06:02:51;102466.31;;;11.16;100.00
6028;BME280;3042;43.194;27.646;2023-01-15T06:05:18;102461.25;;;11.17;100.00
6028;BME280;3042;43.194;27.646;2023-01-15T06:07:47;102312.69;;;10.64;100.00
6028;BME280;3042;43.194;27.646;2023-01-15T06:10:15;102301.19;;;10.72;100.00
6028;BME280;3042;43.194;27.646;2023-01-15T06:12:44;102442.28;;;11.55;100.00
6028;BME280;3042;43.194;27.646;2023-01-15T06:15:11;102442.81;;;11.38;100.00
6028;BME280;3042;43.194;27.646;2023-01-15T06:17:38;102443.44;;;11.47;100.00
6028;BME280;3042;43.194;27.646;2023-01-15T06:20:06;102444.47;;;11.62;100.00
6028;BME280;3042;43.194;27.646;2023-01-15T06:22:33;102373.69;;;11.24;100.00
6028;BME280;3042;43.194;27.646;2023-01-15T06:25:01;102425.66;;;11.90;100.00
6028;BME280;3042;43.194;27.646;2023-01-15T06:27:28;102423.06;;;12.03;100.00
6028;BME280;3042;43.194;27.646;2023-01-15T06:29:57;102276.44;;;11.14;100.00
6028;BME280;3042;43.194;27.646;2023-01-15T06:32:25;102443.78;;;11.90;100.00
6028;BME280;3042;43.194;27.646;2023-01-15T06:34:52;102370.44;;;11.26;100.00
6028;BME280;3042;43.194;27.646;2023-01-15T06:37:19;102446.06;;;11.60;100.00
6028;BME280;3042;43.194;27.646;2023-01-15T06:39:47;102442.78;;;11.63;100.00
6028;BME280;3042;43.194;27.646;2023-01-15T06:42:14;102306.03;;;10.92;100.00
6028;BME280;3042;43.194;27.646;2023-01-15T06:44:59;102421.25;;;12.02;100.00
6028;BME280;3042;43.194;27.646;2023-01-15T06:47:43;102343.47;;;11.49;100.00
6028;BME280;3042;43.194;27.646;2023-01-15T06:50:11;102424.06;;;12.19;100.00
6028;BME280;3042;43.194;27.646;2023-01-15T06:52:38;102420.34;;;12.29;100.00
6028;BME280;3042;43.194;27.646;2023-01-15T06:55:06;102421.84;;;12.52;100.00
6028;BME280;3042;43.194;27.646;2023-01-15T06:57:33;102421.63;;;12.62;100.00
6028;BME280;3042;43.194;27.646;2023-01-15T07:00:06;102243.81;;;11.96;100.00
6028;BME280;3042;43.194;27.646;2023-01-15T07:02:33;102044.66;;;10.76;100.00
6028;BME280;3042;43.194;27.646;2023-01-15T07:05:01;102334.06;;;12.58;100.00
6028;BME280;3042;43.194;27.646;2023-01-15T07:07:28;102407.16;;;13.22;100.00
6028;BME280;3042;43.194;27.646;2023-01-15T07:09:55;102404.44;;;13.34;100.00
6028;BME280;3042;43.194;27.646;2023-01-15T07:12:22;102419.22;;;13.49;100.00
6028;BME280;3042;43.194;27.646;2023-01-15T07:14:49;102399.44;;;13.66;100.00
6028;BME280;3042;43.194;27.646;2023-01-15T07:17:18;102395.22;;;13.98;100.00
6028;BME280;3042;43.194;27.646;2023-01-15T07:19:45;102402.38;;;13.87;100.00
6028;BME280;3042;43.194;27.646;2023-01-15T07:22:12;102405.78;;;14.01;100.00
6028;BME280;3042;43.194;27.646;2023-01-15T07:24:40;102349.16;;;13.81;100.00
6028;BME280;3042;43.194;27.646;2023-01-15T07:27:07;102393.22;;;14.24;100.00
6028;BME280;3042;43.194;27.646;2023-01-15T07:29:34;102389.31;;;14.32;100.00
6028;BME280;3042;43.194;27.646;2023-01-15T07:32:01;102383.81;;;14.42;100.00
6028;BME280;3042;43.194;27.646;2023-01-15T07:34:29;102303.19;;;14.26;100.00
6028;BME280;3042;43.194;27.646;2023-01-15T07:36:56;102406.50;;;14.45;100.00
6028;BME280;3042;43.194;27.646;2023-01-15T07:39:23;102403.06;;;14.61;100.00
6028;BME280;3042;43.194;27.646;2023-01-15T07:41:50;102399.31;;;14.55;100.00
6028;BME280;3042;43.194;27.646;2023-01-15T07:44:35;102409.91;;;14.44;100.00
6028;BME280;3042;43.194;27.646;2023-01-15T07:47:25;102235.41;;;13.44;100.00
6028;BME280;3042;43.194;27.646;2023-01-15T07:50:15;102408.28;;;14.14;100.00
6028;BME280;3042;43.194;27.646;2023-01-15T07:52:42;102437.84;;;13.57;100.00
6028;BME280;3042;43.194;27.646;2023-01-15T07:55:10;102390.50;;;13.18;100.00
6028;BME280;3042;43.194;27.646;2023-01-15T07:57:38;102424.25;;;13.61;100.00
6028;BME280;3042;43.194;27.646;2023-01-15T08:00:08;102414.38;;;13.41;100.00
6028;BME280;3042;43.194;27.646;2023-01-15T08:02:36;102423.34;;;13.76;100.00
6028;BME280;3042;43.194;27.646;2023-01-15T08:05:04;102309.56;;;13.10;100.00
6028;BME280;3042;43.194;27.646;2023-01-15T08:07:37;102407.63;;;14.19;100.00
6028;BME280;3042;43.194;27.646;2023-01-15T08:10:05;102404.13;;;14.33;100.00
6028;BME280;3042;43.194;27.646;2023-01-15T08:12:32;102403.66;;;14.40;100.00
6028;BME280;3042;43.194;27.646;2023-01-15T08:15:16;102408.19;;;14.44;100.00
6028;BME280;3042;43.194;27.646;2023-01-15T08:17:45;102264.63;;;13.71;100.00
6028;BME280;3042;43.194;27.646;2023-01-15T08:20:14;102197.88;;;13.39;100.00
6028;BME280;3042;43.194;27.646;2023-01-15T08:22:43;102400.66;;;14.64;100.00
6028;BME280;3042;43.194;27.646;2023-01-15T08:25:15;102177.63;;;13.48;100.00
6028;BME280;3042;43.194;27.646;2023-01-15T08:27:43;102409.66;;;14.39;100.00
6028;BME280;3042;43.194;27.646;2023-01-15T08:30:12;102403.50;;;14.53;100.00
6028;BME280;3042;43.194;27.646;2023-01-15T08:32:40;102417.88;;;14.47;100.00
6028;BME280;3042;43.194;27.646;2023-01-15T08:35:08;102418.59;;;14.44;100.00
6028;BME280;3042;43.194;27.646;2023-01-15T08:37:35;102417.44;;;14.39;100.00
6028;BME280;3042;43.194;27.646;2023-01-15T08:40:04;102397.06;;;14.62;100.00
6028;BME280;3042;43.194;27.646;2023-01-15T08:42:32;102411.09;;;14.34;100.00
6028;BME280;3042;43.194;27.646;2023-01-15T08:44:59;102413.59;;;14.32;100.00
6028;BME280;3042;43.194;27.646;2023-01-15T08:47:26;102404.13;;;14.33;100.00
6028;BME280;3042;43.194;27.646;2023-01-15T08:49:53;102405.28;;;14.23;100.00
6028;BME280;3042;43.194;27.646;2023-01-15T08:52:20;102398.00;;;14.32;100.00
6028;BME280;3042;43.194;27.646;2023-01-15T08:54:47;102390.28;;;14.34;100.00
6028;BME280;3042;43.194;27.646;2023-01-15T08:57:15;102383.66;;;14.54;100.00
6028;BME280;3042;43.194;27.646;2023-01-15T08:59:42;102306.00;;;13.83;100.00
6028;BME280;3042;43.194;27.646;2023-01-15T09:02:15;102391.53;;;14.41;100.00
6028;BME280;3042;43.194;27.646;2023-01-15T09:04:42;102388.31;;;14.30;100.00
6028;BME280;3042;43.194;27.646;2023-01-15T09:07:09;102395.13;;;14.28;100.00
6028;BME280;3042;43.194;27.646;2023-01-15T09:09:37;102391.97;;;14.17;100.00
6028;BME280;3042;43.194;27.646;2023-01-15T09:12:04;102388.91;;;14.24;100.00
6028;BME280;3042;43.194;27.646;2023-01-15T09:14:33;102385.88;;;14.17;100.00
6028;BME280;3042;43.194;27.646;2023-01-15T09:17:01;102388.41;;;14.00;100.00
6028;BME280;3042;43.194;27.646;2023-01-15T09:19:28;102384.06;;;14.15;100.00
6028;BME280;3042;43.194;27.646;2023-01-15T09:21:55;102370.78;;;14.26;100.00
6028;BME280;3042;43.194;27.646;2023-01-15T09:24:22;102370.94;;;14.29;100.00
6028;BME280;3042;43.194;27.646;2023-01-15T09:26:49;102336.00;;;14.24;100.00
6028;BME280;3042;43.194;27.646;2023-01-15T09:29:17;102271.84;;;13.60;100.00
6028;BME280;3042;43.194;27.646;2023-01-15T09:31:46;102358.78;;;14.44;100.00
6028;BME280;3042;43.194;27.646;2023-01-15T09:34:13;102151.88;;;13.21;100.00
6028;BME280;3042;43.194;27.646;2023-01-15T09:36:40;102289.97;;;14.06;100.00
6028;BME280;3042;43.194;27.646;2023-01-15T09:39:07;102360.31;;;14.41;100.00
6028;BME280;3042;43.194;27.646;2023-01-15T09:41:53;102341.94;;;14.69;100.00
6028;BME280;3042;43.194;27.646;2023-01-15T09:44:38;102338.50;;;14.70;100.00
6028;BME280;3042;43.194;27.646;2023-01-15T09:47:14;102339.66;;;14.59;100.00
6028;BME280;3042;43.194;27.646;2023-01-15T09:50:09;102348.69;;;14.34;100.00
6028;BME280;3042;43.194;27.646;2023-01-15T09:52:57;102364.22;;;13.71;100.00
6028;BME280;3042;43.194;27.646;2023-01-15T09:55:30;102346.47;;;13.94;100.00
6028;BME280;3042;43.194;27.646;2023-01-15T09:58:01;102348.41;;;14.13;100.00
6028;BME280;3042;43.194;27.646;2023-01-15T10:00:37;102118.19;;;12.92;100.00
6028;BME280;3042;43.194;27.646;2023-01-15T10:03:12;102334.84;;;14.35;100.00
6028;BME280;3042;43.194;27.646;2023-01-15T10:05:49;102329.03;;;14.39;100.00
6028;BME280;3042;43.194;27.646;2023-01-15T10:08:21;102256.66;;;13.99;100.00
6028;BME280;3042;43.194;27.646;2023-01-15T10:10:53;102160.66;;;13.23;100.00
6028;BME280;3042;43.194;27.646;2023-01-15T10:13:26;102341.63;;;14.00;100.00
6028;BME280;3042;43.194;27.646;2023-01-15T10:15:55;102326.16;;;14.18;100.00
6028;BME280;3042;43.194;27.646;2023-01-15T10:18:26;102226.31;;;14.14;100.00
6028;BME280;3042;43.194;27.646;2023-01-15T10:21:15;102266.94;;;14.45;100.00
6028;BME280;3042;43.194;27.646;2023-01-15T10:23:54;102287.38;;;14.70;100.00
6028;BME280;3042;43.194;27.646;2023-01-15T10:26:31;102190.47;;;14.09;100.00
6028;BME280;3042;43.194;27.646;2023-01-15T10:29:01;102279.22;;;14.81;100.00
6028;BME280;3042;43.194;27.646;2023-01-15T10:31:49;102269.19;;;15.05;100.00
6028;BME280;3042;43.194;27.646;2023-01-15T10:34:44;102254.41;;;15.22;100.00
6028;BME280;3042;43.194;27.646;2023-01-15T10:37:23;102261.28;;;15.19;100.00
6028;BME280;3042;43.194;27.646;2023-01-15T10:40:13;102251.97;;;15.25;100.00
6028;BME280;3042;43.194;27.646;2023-01-15T10:42:49;102146.94;;;14.54;100.00
6028;BME280;3042;43.194;27.646;2023-01-15T10:45:20;102257.00;;;15.04;100.00
6028;BME280;3042;43.194;27.646;2023-01-15T10:47:54;102252.41;;;15.16;100.00
6028;BME280;3042;43.194;27.646;2023-01-15T10:50:25;102248.81;;;15.14;100.00
6028;BME280;3042;43.194;27.646;2023-01-15T10:53:02;102245.88;;;15.24;100.00
6028;BME280;3042;43.194;27.646;2023-01-15T10:55:35;102242.56;;;15.28;100.00
6028;BME280;3042;43.194;27.646;2023-01-15T10:58:10;102239.19;;;15.29;100.00
6028;BME280;3042;43.194;27.646;2023-01-15T11:00:41;102240.81;;;15.27;100.00
6028;BME280;3042;43.194;27.646;2023-01-15T11:03:15;102180.59;;;15.21;100.00
6028;BME280;3042;43.194;27.646;2023-01-15T11:05:46;102243.75;;;15.17;100.00
6028;BME280;3042;43.194;27.646;2023-01-15T11:08:20;102236.91;;;15.19;100.00
6028;BME280;3042;43.194;27.646;2023-01-15T11:10:50;102255.56;;;14.76;100.00
6028;BME280;3042;43.194;27.646;2023-01-15T11:13:21;102259.28;;;14.15;100.00
6028;BME280;3042;43.194;27.646;2023-01-15T11:16:13;102255.03;;;14.01;100.00
6028;BME280;3042;43.194;27.646;2023-01-15T11:19:00;102260.84;;;13.81;100.00
6028;BME280;3042;43.194;27.646;2023-01-15T11:21:47;102258.19;;;13.64;100.00
6028;BME280;3042;43.194;27.646;2023-01-15T11:24:16;102253.00;;;13.64;100.00
6028;BME280;3042;43.194;27.646;2023-01-15T11:26:46;102243.63;;;13.83;100.00
6028;BME280;3042;43.194;27.646;2023-01-15T11:29:18;102230.19;;;14.06;100.00
6028;BME280;3042;43.194;27.646;2023-01-15T11:31:46;102185.25;;;13.76;100.00
6028;BME280;3042;43.194;27.646;2023-01-15T11:34:19;102237.47;;;13.97;100.00
6028;BME280;3042;43.194;27.646;2023-01-15T11:36:48;102232.97;;;14.09;100.00
6028;BME280;3042;43.194;27.646;2023-01-15T11:39:27;102219.25;;;14.28;100.00
6028;BME280;3042;43.194;27.646;2023-01-15T11:41:59;102176.50;;;14.07;100.00
6028;BME280;3042;43.194;27.646;2023-01-15T11:44:51;102210.38;;;14.41;100.00
6028;BME280;3042;43.194;27.646;2023-01-15T11:47:36;102158.31;;;13.43;100.00
6028;BME280;3042;43.194;27.646;2023-01-15T11:50:20;102155.59;;;13.56;100.00
6028;BME280;3042;43.194;27.646;2023-01-15T11:53:16;102214.28;;;14.49;100.00
6028;BME280;3042;43.194;27.646;2023-01-15T11:55:57;102222.59;;;14.42;100.00
6028;BME280;3042;43.194;27.646;2023-01-15T11:58:33;102202.81;;;14.46;100.00
6028;BME280;3042;43.194;27.646;2023-01-15T12:01:05;102213.47;;;14.34;100.00
6028;BME280;3042;43.194;27.646;2023-01-15T12:03:33;102196.22;;;14.69;100.00
6028;BME280;3042;43.194;27.646;2023-01-15T12:06:03;102134.59;;;14.51;100.00
6028;BME280;3042;43.194;27.646;2023-01-15T12:08:47;102132.75;;;14.83;100.00
6028;BME280;3042;43.194;27.646;2023-01-15T12:11:34;102184.19;;;15.23;100.00
6028;BME280;3042;43.194;27.646;2023-01-15T12:14:22;102181.50;;;15.22;100.00
6028;BME280;3042;43.194;27.646;2023-01-15T12:17:01;102152.63;;;15.17;100.00
6028;BME280;3042;43.194;27.646;2023-01-15T12:19:36;102181.56;;;15.23;100.00
6028;BME280;3042;43.194;27.646;2023-01-15T12:22:15;102174.59;;;15.22;100.00
6028;BME280;3042;43.194;27.646;2023-01-15T12:25:13;102154.34;;;15.34;100.00
6028;BME280;3042;43.194;27.646;2023-01-15T12:27:53;102144.50;;;15.29;100.00
6028;BME280;3042;43.194;27.646;2023-01-15T12:30:27;102175.75;;;15.47;100.00
6028;BME280;3042;43.194;27.646;2023-01-15T12:33:08;102170.63;;;15.48;100.00
6028;BME280;3042;43.194;27.646;2023-01-15T12:35:42;102170.00;;;15.54;100.00
6028;BME280;3042;43.194;27.646;2023-01-15T12:38:16;102052.53;;;14.92;100.00
6028;BME280;3042;43.194;27.646;2023-01-15T12:40:48;101991.22;;;14.62;100.00
6028;BME280;3042;43.194;27.646;2023-01-15T12:43:22;102163.09;;;15.72;100.00
6028;BME280;3042;43.194;27.646;2023-01-15T12:46:11;102175.38;;;15.57;100.00
6028;BME280;3042;43.194;27.646;2023-01-15T12:48:45;102193.03;;;15.09;100.00
6028;BME280;3042;43.194;27.646;2023-01-15T12:51:20;102179.81;;;15.22;100.00
6028;BME280;3042;43.194;27.646;2023-01-15T12:53:55;102178.44;;;15.30;100.00
6028;BME280;3042;43.194;27.646;2023-01-15T12:56:27;102151.50;;;15.12;100.00
6028;BME280;3042;43.194;27.646;2023-01-15T12:59:00;102183.78;;;14.97;100.00
6028;BME280;3042;43.194;27.646;2023-01-15T13:01:37;102166.03;;;15.25;100.00
6028;BME280;3042;43.194;27.646;2023-01-15T13:04:15;102162.81;;;15.30;100.00
6028;BME280;3042;43.194;27.646;2023-01-15T13:06:46;102163.88;;;15.34;100.00
6028;BME280;3042;43.194;27.646;2023-01-15T13:09:33;102141.69;;;14.88;100.00
6028;BME280;3042;43.194;27.646;2023-01-15T13:12:10;102170.06;;;14.66;100.00
6028;BME280;3042;43.194;27.646;2023-01-15T13:14:38;102172.34;;;14.60;100.00